Fort Gates, Texas
Current Conditions -  °F | °C
As of 8:35 PM on Thursday 20 Nov 2014 (Local Time) from KGOP Reporting Station
Broken Clouds Broken Clouds  
Wind Chill: 63°   Ceiling: 2900
Heat Index: 63°   Visibility: 10mi
Dew Point: 59°   Wind: 0mph
Humidity: 88%   Direction: NA
Pressure: 30.07"   Gusts: NA
Location:  31.392°N, 97.7452°W
Report Text: KGOP 210235Z AUTO 00000KT 10SM FEW017 SCT023 BKN029 17/15 A3007 RMK AO2 PWINO
Loading
Personal Weather Stations






























Interactive Weather Map New forecast layout! Learn more

10-Day Weather Forecast

Advertisements
Track Severe Weather on mobile